Time;durP1;ratioP1;P1;durP2;ratioP2;P2;SDS_P1;SDS_P2;PMS_P1;PMS_P2;Temp;Humidity;BMP_temperature;BMP_pressure;BME280_temperature;BME280_humidity;BME280_pressure;Samples;Min_cycle;Max_cycle;Signal;HPM_P1;HPM_P2
2021/07/16 00:00:08;;;;;;;8.23;2.05;;;;;;;14.59;100.00;98997.78;5053326;28;20095;-77
2021/07/16 00:02:36;;;;;;;4.20;2.00;;;;;;;14.65;100.00;98999.72;5053663;28;20045;-77
2021/07/16 00:05:04;;;;;;;3.15;1.73;;;;;;;14.60;100.00;98989.41;5053251;28;20123;-77
2021/07/16 00:07:31;;;;;;;4.82;2.00;;;;;;;14.57;100.00;98997.19;5050945;28;20061;-77
2021/07/16 00:09:57;;;;;;;11.38;2.20;;;;;;;14.72;99.55;99008.72;5049140;28;20041;-77
2021/07/16 00:12:24;;;;;;;7.35;2.42;;;;;;;14.61;99.85;99014.88;5053480;28;20480;-77
2021/07/16 00:14:51;;;;;;;3.08;2.60;;;;;;;14.45;100.00;99000.59;5053292;28;20049;-77
2021/07/16 00:17:18;;;;;;;2.97;2.15;;;;;;;14.39;100.00;99001.44;5052526;28;20480;-78
2021/07/16 00:19:46;;;;;;;6.85;2.90;;;;;;;14.47;100.00;99011.31;5052656;28;20570;-77
2021/07/16 00:22:12;;;;;;;3.33;2.40;;;;;;;14.39;100.00;99012.41;5052865;28;20049;-77
2021/07/16 00:24:39;;;;;;;4.68;2.67;;;;;;;14.52;100.00;99017.81;5052642;28;20118;-77
2021/07/16 00:27:06;;;;;;;5.47;2.40;;;;;;;14.68;100.00;99011.06;5052244;28;20049;-77
2021/07/16 00:29:33;;;;;;;7.60;2.60;;;;;;;14.68;100.00;99010.25;5052766;28;20045;-78
2021/07/16 00:31:59;;;;;;;2.75;2.10;;;;;;;14.64;100.00;99017.19;5052877;28;20370;-78
2021/07/16 00:34:26;;;;;;;11.00;3.42;;;;;;;14.66;100.00;99015.94;5052518;28;20458;-78
2021/07/16 00:36:55;;;;;;;31.08;3.88;;;;;;;14.61;100.00;99018.44;5053217;28;20080;-78
2021/07/16 00:39:21;;;;;;;32.78;4.80;;;;;;;14.65;100.00;99021.63;5053283;28;20076;-77
2021/07/16 00:41:48;;;;;;;9.82;3.85;;;;;;;14.79;100.00;99023.22;5047789;28;20049;-77
2021/07/16 00:44:15;;;;;;;17.08;3.95;;;;;;;14.82;100.00;99032.91;5052376;28;20045;-77
2021/07/16 00:46:41;;;;;;;19.85;4.72;;;;;;;14.71;100.00;99037.16;5053320;28;20080;-78
2021/07/16 00:49:08;;;;;;;52.55;5.22;;;;;;;14.73;100.00;99023.28;5052806;28;20052;-77
2021/07/16 00:51:35;;;;;;;34.58;5.22;;;;;;;14.75;100.00;99024.72;5052947;28;20118;-77
2021/07/16 00:54:03;;;;;;;112.45;6.90;;;;;;;14.68;100.00;99030.22;5052984;28;20080;-78
2021/07/16 00:56:30;;;;;;;112.18;7.70;;;;;;;14.71;100.00;99028.09;5052696;28;20091;-78
2021/07/16 00:58:57;;;;;;;40.95;5.50;;;;;;;14.78;100.00;99023.44;5052320;28;20075;-77
2021/07/16 01:01:23;;;;;;;102.97;6.68;;;;;;;14.86;100.00;99026.78;5052766;28;20045;-77
2021/07/16 01:03:51;;;;;;;106.43;7.30;;;;;;;14.93;100.00;99031.41;5052568;28;20049;-77
2021/07/16 01:06:17;;;;;;;84.35;5.50;;;;;;;15.01;100.00;99032.00;5052835;28;20088;-77
2021/07/16 01:08:44;;;;;;;79.80;5.40;;;;;;;14.88;100.00;99023.84;5052286;28;20420;-77
2021/07/16 01:11:13;;;;;;;50.92;5.53;;;;;;;14.80;100.00;99024.94;5051868;28;20053;-78
2021/07/16 01:13:40;;;;;;;235.75;9.40;;;;;;;14.80;100.00;99022.19;5052229;28;20518;-77
2021/07/16 01:16:06;;;;;;;160.65;8.13;;;;;;;14.76;100.00;99020.94;5043310;28;20053;-77
2021/07/16 01:18:33;;;;;;;209.55;8.15;;;;;;;14.82;100.00;99032.91;5042631;28;20045;-77
2021/07/16 01:21:01;;;;;;;184.38;10.77;;;;;;;14.86;100.00;99026.78;5051750;28;20069;-77
2021/07/16 01:23:30;;;;;;;186.57;8.23;;;;;;;14.92;100.00;99035.19;5052186;28;20132;-77
2021/07/16 01:25:57;;;;;;;61.45;6.18;;;;;;;15.02;100.00;99035.56;5051781;28;20578;-77
2021/07/16 01:28:24;;;;;;;245.70;9.75;;;;;;;14.99;100.00;99034.09;5052408;28;20045;-77
2021/07/16 01:30:53;;;;;;;115.95;8.00;;;;;;;14.86;100.00;99037.75;5051424;28;20072;-77
2021/07/16 01:33:21;;;;;;;134.48;7.65;;;;;;;14.86;100.00;99035.00;5052162;28;20139;-77
2021/07/16 01:35:48;;;;;;;216.30;9.30;;;;;;;14.88;100.00;99033.97;5051713;28;20045;-77
2021/07/16 01:38:15;;;;;;;144.57;8.35;;;;;;;14.84;100.00;99031.66;5052018;28;20076;-77
2021/07/16 01:40:43;;;;;;;213.63;9.40;;;;;;;14.92;100.00;99026.97;5052116;28;20516;-77
2021/07/16 01:43:12;;;;;;;73.20;6.80;;;;;;;14.90;100.00;99032.66;5051900;28;20057;-77
2021/07/16 01:45:40;;;;;;;30.08;5.65;;;;;;;14.68;100.00;99022.00;5051566;28;20076;-77
2021/07/16 01:48:10;;;;;;;80.28;6.10;;;;;;;14.75;100.00;99026.63;5048238;28;20481;-77
2021/07/16 01:50:39;;;;;;;20.85;4.82;;;;;;;14.72;100.00;99016.09;5051806;28;20492;-77
2021/07/16 01:53:06;;;;;;;11.15;4.72;;;;;;;14.79;100.00;99028.72;5051554;28;20546;-77
2021/07/16 01:55:34;;;;;;;17.33;4.85;;;;;;;14.71;100.00;99009.81;5051931;28;20098;-77
2021/07/16 01:58:06;;;;;;;8.90;4.93;;;;;;;14.82;100.00;99024.72;5050165;28;20532;-77
2021/07/16 02:00:36;;;;;;;10.45;4.47;;;;;;;14.81;100.00;99026.63;5051914;28;20068;-77
2021/07/16 02:03:06;;;;;;;7.00;4.68;;;;;;;14.85;100.00;99041.53;5050752;28;20122;-78
2021/07/16 02:05:35;;;;;;;6.13;3.65;;;;;;;14.85;100.00;99043.44;5050718;28;20428;-77
2021/07/16 02:08:12;;;;;;;4.18;3.53;;;;;;;14.80;100.00;99035.88;5052223;28;20057;-77
2021/07/16 02:10:39;;;;;;;8.00;4.25;;;;;;;14.80;100.00;99043.25;5049632;28;20081;-77
2021/07/16 02:13:07;;;;;;;10.95;4.40;;;;;;;14.91;100.00;99034.34;5051934;28;20484;-77
2021/07/16 02:15:37;;;;;;;95.93;6.95;;;;;;;14.86;100.00;99031.44;5044996;28;20045;-77
2021/07/16 02:18:04;;;;;;;116.85;9.13;;;;;;;14.72;100.00;99033.34;5047576;28;20049;-77
2021/07/16 02:20:34;;;;;;;70.50;7.88;;;;;;;14.79;100.00;99031.44;5050647;28;20080;-77
2021/07/16 02:23:04;;;;;;;59.30;7.15;;;;;;;14.83;100.00;99031.88;5055918;28;20134;-77
2021/07/16 02:25:31;;;;;;;53.45;8.63;;;;;;;14.85;100.00;99019.63;5055751;28;20107;-77
2021/07/16 02:27:59;;;;;;;54.85;7.78;;;;;;;14.89;100.00;99017.31;5055496;28;20076;-77
2021/07/16 02:30:28;;;;;;;21.70;7.45;;;;;;;14.97;100.00;99025.28;5055798;28;20081;-77
2021/07/16 02:32:56;;;;;;;21.92;7.47;;;;;;;14.92;100.00;99025.09;5055649;28;20056;-77
2021/07/16 02:35:24;;;;;;;25.48;7.40;;;;;;;14.92;100.00;99018.75;5055125;28;20049;-77
2021/07/16 02:37:51;;;;;;;50.17;10.00;;;;;;;14.89;100.00;99024.66;5055400;28;20098;-77
2021/07/16 02:40:18;;;;;;;11.02;6.75;;;;;;;14.99;100.00;99022.31;5053295;28;20045;-77
2021/07/16 02:42:46;;;;;;;19.63;7.18;;;;;;;14.96;100.00;99029.06;5042488;28;20084;-77
2021/07/16 02:45:15;;;;;;;20.33;6.72;;;;;;;14.85;100.00;99037.97;5054921;28;20098;-77
2021/07/16 02:47:43;;;;;;;17.92;7.13;;;;;;;14.87;100.00;99035.84;5055084;28;20052;-77
2021/07/16 02:50:12;;;;;;;19.00;6.50;;;;;;;14.99;100.00;99045.06;5055411;28;20103;-77
2021/07/16 02:52:39;;;;;;;15.35;6.93;;;;;;;14.93;100.00;99042.34;5054652;28;20080;-77
2021/07/16 02:55:06;;;;;;;25.33;8.00;;;;;;;15.00;100.00;99043.16;5055075;28;20405;-77
2021/07/16 02:57:33;;;;;;;24.08;7.50;;;;;;;14.96;100.00;99050.97;5055135;28;20488;-77
2021/07/16 03:00:00;;;;;;;15.90;6.60;;;;;;;15.04;100.00;99052.63;5054533;28;20727;-77
2021/07/16 03:02:29;;;;;;;13.88;6.60;;;;;;;15.13;100.00;99056.81;5054851;28;20045;-77
2021/07/16 03:04:57;;;;;;;33.92;7.70;;;;;;;14.94;100.00;99055.00;5054744;28;20049;-77
2021/07/16 03:07:24;;;;;;;22.05;7.50;;;;;;;15.00;100.00;99054.94;5053824;28;20486;-77
2021/07/16 03:09:51;;;;;;;15.15;6.47;;;;;;;14.99;100.00;99049.69;5055387;28;20123;-77
2021/07/16 03:12:17;;;;;;;10.52;5.57;;;;;;;15.08;100.00;99058.50;5055074;28;20455;-77
2021/07/16 03:14:44;;;;;;;13.45;5.15;;;;;;;15.07;100.00;99056.81;5054823;28;20107;-77
2021/07/16 03:17:11;;;;;;;9.40;5.57;;;;;;;15.14;100.00;99055.72;5054546;28;20048;-77
2021/07/16 03:19:38;;;;;;;13.27;4.60;;;;;;;15.03;100.00;99062.72;5053628;28;20041;-77
2021/07/16 03:22:06;;;;;;;12.85;5.18;;;;;;;14.93;100.00;99058.78;5054242;28;20085;-77
2021/07/16 03:24:33;;;;;;;7.60;4.97;;;;;;;14.92;100.00;99057.94;5054284;28;20493;-77
2021/07/16 03:27:00;;;;;;;16.20;5.75;;;;;;;14.93;100.00;99065.06;5054603;28;20084;-77
2021/07/16 03:29:26;;;;;;;10.60;5.63;;;;;;;14.91;100.00;99074.59;5055174;28;20059;-77
2021/07/16 03:31:53;;;;;;;26.10;8.25;;;;;;;15.00;100.00;99062.34;5054655;28;20077;-77
2021/07/16 03:34:20;;;;;;;17.55;6.68;;;;;;;15.04;100.00;99067.16;5048856;28;20099;-77
2021/07/16 03:36:47;;;;;;;19.10;7.43;;;;;;;15.13;100.00;99070.50;5054252;28;20077;-77
2021/07/16 03:39:15;;;;;;;23.83;9.70;;;;;;;15.05;100.00;99070.72;5054178;28;20088;-77
2021/07/16 03:41:43;;;;;;;14.40;7.75;;;;;;;15.10;100.00;99070.06;5042026;28;20037;-77
2021/07/16 03:44:11;;;;;;;19.23;8.13;;;;;;;15.05;100.00;99067.97;5053621;28;20052;-77
2021/07/16 03:46:37;;;;;;;16.20;8.23;;;;;;;14.96;100.00;99072.03;5053882;28;20049;-77
2021/07/16 03:49:04;;;;;;;17.25;8.23;;;;;;;15.02;100.00;99066.53;5053613;28;20057;-77
2021/07/16 03:51:31;;;;;;;17.95;8.18;;;;;;;15.09;100.00;99065.69;5054122;28;20080;-77
2021/07/16 03:53:58;;;;;;;19.40;8.38;;;;;;;15.02;100.00;99065.69;5053624;28;20076;-77
2021/07/16 03:56:26;;;;;;;22.65;8.90;;;;;;;15.02;100.00;99058.34;5054073;28;20057;-77
2021/07/16 03:58:52;;;;;;;15.95;8.02;;;;;;;15.00;100.00;99056.84;5054008;28;20045;-77
2021/07/16 04:01:19;;;;;;;16.10;8.13;;;;;;;15.07;100.00;99065.03;5053850;28;20041;-77
2021/07/16 04:03:46;;;;;;;16.75;8.45;;;;;;;15.23;100.00;99067.28;5053922;28;20496;-77
2021/07/16 04:06:12;;;;;;;15.52;8.23;;;;;;;15.19;100.00;99058.69;5050755;28;20488;-77
2021/07/16 04:08:39;;;;;;;14.10;7.30;;;;;;;15.24;100.00;99058.03;5053718;28;20119;-77
2021/07/16 04:11:06;;;;;;;14.07;7.07;;;;;;;15.32;100.00;99067.88;5053852;28;20049;-77
2021/07/16 04:13:34;;;;;;;13.10;6.97;;;;;;;15.40;100.00;99073.94;5053588;28;20088;-77
2021/07/16 04:16:01;;;;;;;11.88;6.80;;;;;;;15.34;100.00;99077.56;5053710;28;20081;-77
2021/07/16 04:18:28;;;;;;;16.42;8.00;;;;;;;15.35;100.00;99071.00;5053876;28;20134;-77
2021/07/16 04:20:55;;;;;;;16.10;7.22;;;;;;;15.33;100.00;99062.19;5051807;28;20122;-77
2021/07/16 04:23:22;;;;;;;20.25;8.18;;;;;;;15.40;100.00;99073.09;5053072;28;20584;-77
2021/07/16 04:25:49;;;;;;;22.02;8.98;;;;;;;15.46;100.00;99069.50;5054221;28;20139;-78
2021/07/16 04:28:16;;;;;;;28.05;9.95;;;;;;;15.34;100.00;99054.78;5054929;28;20099;-78
2021/07/16 04:30:44;;;;;;;52.58;10.50;;;;;;;15.50;100.00;99080.84;5053641;28;20068;-78
2021/07/16 04:33:11;;;;;;;47.47;10.02;;;;;;;15.37;100.00;99065.31;5053249;28;20053;-78
2021/07/16 04:35:39;;;;;;;88.88;12.13;;;;;;;15.41;100.00;99074.78;5053693;28;20048;-78
2021/07/16 04:38:06;;;;;;;43.70;11.40;;;;;;;15.35;100.00;99081.97;5052860;28;20488;-78
2021/07/16 04:40:34;;;;;;;27.02;9.93;;;;;;;15.30;100.00;99078.22;5041461;28;20049;-78
2021/07/16 04:43:02;;;;;;;19.35;10.27;;;;;;;15.39;100.00;99087.88;5041320;28;20087;-79
2021/07/16 04:45:31;;;;;;;18.80;10.80;;;;;;;15.41;100.00;99091.22;5051435;28;20049;-78
2021/07/16 04:47:59;;;;;;;27.83;9.85;;;;;;;15.49;100.00;99095.59;5053318;28;20052;-78
2021/07/16 04:50:26;;;;;;;42.50;12.57;;;;;;;15.43;100.00;99094.59;5052819;28;20048;-78
2021/07/16 04:52:53;;;;;;;28.20;9.32;;;;;;;15.67;100.00;99097.59;5051902;28;20203;-78
2021/07/16 04:55:21;;;;;;;16.80;10.00;;;;;;;15.76;100.00;99096.28;5042354;28;20096;-77
2021/07/16 04:57:48;;;;;;;16.10;9.75;;;;;;;15.83;100.00;99096.28;5038733;28;20051;-77
2021/07/16 05:00:16;;;;;;;19.05;10.20;;;;;;;15.85;100.00;99094.16;5052194;28;20051;-77
2021/07/16 05:02:43;;;;;;;15.45;9.02;;;;;;;15.81;100.00;99096.50;5053301;28;20080;-77
2021/07/16 05:05:12;;;;;;;14.70;8.65;;;;;;;15.92;100.00;99101.28;5050851;28;20531;-77
2021/07/16 05:07:39;;;;;;;18.93;9.10;;;;;;;15.93;100.00;99100.22;5052918;28;20087;-78
2021/07/16 05:10:08;;;;;;;15.77;8.70;;;;;;;16.09;100.00;99106.22;5052647;28;20354;-77
2021/07/16 05:12:35;;;;;;;12.95;8.65;;;;;;;16.18;100.00;99107.63;5043956;28;20045;-77
2021/07/16 05:15:02;;;;;;;17.92;9.23;;;;;;;16.25;100.00;99108.41;5052519;28;20052;-78
2021/07/16 05:17:29;;;;;;;13.80;9.40;;;;;;;16.39;100.00;99116.53;5043809;28;20481;-77
2021/07/16 05:19:56;;;;;;;19.23;9.20;;;;;;;16.58;100.00;99109.19;5052543;28;20084;-78
2021/07/16 05:22:24;;;;;;;15.45;9.25;;;;;;;16.64;99.87;99122.03;5051711;28;20098;-77
2021/07/16 05:24:51;;;;;;;15.70;9.63;;;;;;;16.70;100.00;99107.41;5052638;28;20130;-77
2021/07/16 05:27:17;;;;;;;12.85;9.32;;;;;;;16.73;98.49;99108.84;5052014;28;20084;-78
2021/07/16 05:29:44;;;;;;;13.88;9.35;;;;;;;16.60;99.21;99115.28;5052632;28;20057;-78
2021/07/16 05:32:11;;;;;;;14.20;8.98;;;;;;;16.43;100.00;99117.78;5046980;28;20041;-78
2021/07/16 05:34:37;;;;;;;16.55;9.52;;;;;;;16.44;100.00;99116.72;5047701;28;20134;-78
2021/07/16 05:37:04;;;;;;;14.45;8.77;;;;;;;16.36;100.00;99123.31;5050640;28;20049;-78
2021/07/16 05:39:32;;;;;;;16.98;9.32;;;;;;;16.42;100.00;99132.56;5045187;28;20088;-78
2021/07/16 05:42:03;;;;;;;13.70;8.45;;;;;;;16.22;100.00;99116.25;5051954;28;20489;-78
2021/07/16 05:44:30;;;;;;;12.05;8.60;;;;;;;16.28;100.00;99129.91;5051041;28;20056;-78
2021/07/16 05:46:57;;;;;;;13.70;9.27;;;;;;;16.37;99.98;99135.13;5051943;28;20091;-78
2021/07/16 05:49:24;;;;;;;15.02;9.05;;;;;;;16.35;100.00;99129.88;5051281;28;20061;-78
2021/07/16 05:51:51;;;;;;;16.48;9.00;;;;;;;16.46;100.00;99139.28;5043697;28;20550;-78
2021/07/16 05:54:17;;;;;;;17.08;9.93;;;;;;;16.66;97.59;99143.75;5051477;28;20047;-78
2021/07/16 05:56:46;;;;;;;13.95;8.45;;;;;;;16.64;98.27;99143.97;5051051;28;20099;-78
2021/07/16 05:59:12;;;;;;;12.32;8.73;;;;;;;16.69;99.23;99138.63;5045855;28;20048;-78
2021/07/16 06:01:39;;;;;;;13.23;8.70;;;;;;;16.62;99.80;99148.88;5051492;28;20076;-77
2021/07/16 06:04:10;;;;;;;12.32;8.98;;;;;;;16.71;97.72;99142.03;5051924;28;20103;-78
2021/07/16 06:06:38;;;;;;;11.40;8.55;;;;;;;16.69;99.34;99152.38;5051441;28;20053;-78
2021/07/16 06:09:06;;;;;;;14.70;9.25;;;;;;;16.75;98.21;99151.47;5051812;28;20389;-78
2021/07/16 06:11:33;;;;;;;12.73;9.23;;;;;;;16.87;98.93;99159.84;5051360;28;20492;-78
2021/07/16 06:14:02;;;;;;;12.77;9.27;;;;;;;17.09;97.01;99156.69;5043371;28;20045;-78
2021/07/16 06:16:29;;;;;;;13.88;9.88;;;;;;;17.21;94.92;99160.34;5036720;28;20045;-78
2021/07/16 06:18:56;;;;;;;13.52;10.40;;;;;;;17.20;94.78;99155.91;5050731;28;20072;-78
2021/07/16 06:21:26;;;;;;;14.63;10.70;;;;;;;17.02;95.87;99164.13;5052294;28;20079;-78
2021/07/16 06:23:53;;;;;;;16.73;11.00;;;;;;;17.12;96.19;99161.72;5052780;28;20094;-78
2021/07/16 06:26:19;;;;;;;14.18;10.30;;;;;;;17.11;95.25;99166.34;5051768;28;20140;-78
2021/07/16 06:28:46;;;;;;;17.75;10.80;;;;;;;17.25;95.21;99167.06;5051740;28;20138;-79
2021/07/16 06:31:14;;;;;;;17.02;11.25;;;;;;;17.51;92.99;99170.56;5052018;28;20102;-79
2021/07/16 06:33:41;;;;;;;16.65;11.27;;;;;;;18.19;91.23;99166.69;5052067;28;20041;-79
2021/07/16 06:36:07;;;;;;;14.00;10.27;;;;;;;18.60;89.00;99158.66;5050297;28;20622;-79
2021/07/16 06:38:34;;;;;;;13.15;9.82;;;;;;;18.85;84.70;99165.84;5051895;28;20053;-79
2021/07/16 06:41:02;;;;;;;15.27;9.50;;;;;;;19.24;83.12;99161.56;5051815;28;20103;-79
2021/07/16 06:43:29;;;;;;;13.32;9.45;;;;;;;19.72;81.48;99162.28;5051321;28;20045;-79
2021/07/16 06:45:56;;;;;;;10.20;7.90;;;;;;;19.88;78.41;99151.56;5051548;28;20048;-79
2021/07/16 06:48:24;;;;;;;9.93;7.60;;;;;;;20.48;77.18;99161.22;5051528;28;20052;-80
2021/07/16 06:50:51;;;;;;;12.05;7.63;;;;;;;20.47;76.90;99160.38;5051806;28;20048;-80
2021/07/16 06:53:18;;;;;;;10.18;7.88;;;;;;;19.96;76.58;99176.84;5045109;28;20091;-80
2021/07/16 06:55:45;;;;;;;9.55;7.57;;;;;;;19.88;78.06;99180.00;5051450;28;20060;-81
2021/07/16 06:58:11;;;;;;;11.07;7.63;;;;;;;19.84;78.15;99170.53;5051221;28;20077;-80
2021/07/16 07:00:38;;;;;;;8.52;7.07;;;;;;;19.86;79.34;99170.28;5051527;28;20044;-80
2021/07/16 07:03:05;;;;;;;11.73;7.50;;;;;;;19.86;79.25;99160.09;5051229;28;20055;-80
2021/07/16 07:05:34;;;;;;;9.77;6.55;;;;;;;20.25;78.92;99175.97;5051532;28;20052;-81
2021/07/16 07:08:01;;;;;;;7.72;6.70;;;;;;;20.24;77.50;99177.09;5052128;28;20049;-80
2021/07/16 07:10:28;;;;;;;7.75;5.90;;;;;;;20.29;77.35;99174.41;5041751;28;20084;-81
2021/07/16 07:12:54;;;;;;;6.53;5.70;;;;;;;20.08;77.05;99178.72;5040285;28;20045;-81
2021/07/16 07:15:21;;;;;;;10.73;5.40;;;;;;;20.13;77.15;99187.94;5055173;28;20115;-81
2021/07/16 07:17:48;;;;;;;10.25;5.80;;;;;;;20.08;80.13;99192.50;5055143;28;20115;-81
2021/07/16 07:20:15;;;;;;;6.65;5.75;;;;;;;19.87;76.77;99203.16;5055050;28;20103;-81
2021/07/16 07:22:43;;;;;;;7.57;5.72;;;;;;;19.26;80.38;99213.66;5054913;28;20052;-82
2021/07/16 07:25:11;;;;;;;7.47;6.30;;;;;;;18.94;84.03;99211.28;5054790;28;20102;-82
2021/07/16 07:27:38;;;;;;;10.75;7.97;;;;;;;18.78;85.80;99218.28;5040683;28;20080;-82
2021/07/16 07:30:07;;;;;;;17.80;8.30;;;;;;;18.40;88.03;99212.09;5041036;28;20609;-82
2021/07/16 07:32:34;;;;;;;16.60;8.40;;;;;;;18.27;88.86;99211.47;5054974;28;20057;-82
2021/07/16 07:35:00;;;;;;;12.60;8.70;;;;;;;18.16;89.63;99213.09;5054196;28;20052;-82
2021/07/16 07:37:27;;;;;;;11.68;8.40;;;;;;;18.30;89.75;99219.25;5054227;28;20044;-82
2021/07/16 07:39:55;;;;;;;12.25;8.27;;;;;;;18.47;89.13;99223.03;5055005;28;20089;-82
2021/07/16 07:42:25;;;;;;;11.13;8.45;;;;;;;18.66;87.80;99231.19;5054404;28;20045;-83
2021/07/16 07:44:54;;;;;;;11.13;8.25;;;;;;;18.83;87.48;99223.91;5037595;28;20049;-82
2021/07/16 07:47:22;;;;;;;13.30;6.85;;;;;;;19.12;84.92;99223.25;5052805;28;20102;-83
2021/07/16 07:49:49;;;;;;;10.30;6.72;;;;;;;19.35;82.63;99228.75;5054363;28;20492;-82
2021/07/16 07:52:18;;;;;;;8.63;6.57;;;;;;;19.58;79.66;99235.31;5054128;28;20057;-84
2021/07/16 07:54:46;;;;;;;6.85;5.95;;;;;;;19.39;80.91;99224.44;5053873;28;20051;-80
2021/07/16 07:57:21;;;;;;;8.05;5.47;;;;;;;19.70;80.68;99216.81;5054397;28;20037;-83
2021/07/16 07:59:55;;;;;;;7.55;5.68;;;;;;;19.77;79.83;99222.22;5051202;28;20041;-82
2021/07/16 08:02:22;;;;;;;7.20;5.50;;;;;;;19.88;77.73;99212.25;5040056;28;20310;-82
2021/07/16 08:04:57;;;;;;;6.30;5.18;;;;;;;19.94;76.70;99225.06;5054055;28;20499;-82
2021/07/16 08:07:24;;;;;;;5.82;4.75;;;;;;;20.25;78.06;99222.91;5054101;28;20520;-82
2021/07/16 08:09:55;;;;;;;9.63;6.72;;;;;;;20.05;76.61;99206.78;5054325;28;20057;-83
2021/07/16 08:12:29;;;;;;;8.80;6.88;;;;;;;20.23;78.42;99230.59;5054476;28;20480;-82
2021/07/16 08:15:02;;;;;;;9.38;7.50;;;;;;;20.15;77.30;99220.78;5053482;28;20175;-83
2021/07/16 08:17:29;;;;;;;9.65;6.70;;;;;;;20.32;78.94;99227.22;5034587;28;20115;-82
2021/07/16 08:19:56;;;;;;;10.23;6.60;;;;;;;20.03;78.89;99229.13;5048618;28;20057;-83
2021/07/16 08:22:22;;;;;;;9.70;7.63;;;;;;;20.04;78.80;99229.94;5053874;28;20485;-83
2021/07/16 08:24:49;;;;;;;8.05;6.85;;;;;;;19.87;80.39;99235.41;5053293;28;20045;-83
2021/07/16 08:27:16;;;;;;;11.43;7.25;;;;;;;19.79;79.65;99240.22;5053833;28;20052;-83
2021/07/16 08:30:19;;;;;;;13.38;7.38;;;;;;;19.56;82.06;99226.47;5053360;28;20048;-84
2021/07/16 08:33:05;;;;;;;11.02;7.28;;;;;;;19.72;80.94;99224.84;4991007;28;20128;-83
2021/07/16 08:35:49;;;;;;;13.95;6.53;;;;;;;20.57;77.65;99227.91;5039870;28;20045;-83
2021/07/16 08:38:26;;;;;;;11.85;5.97;;;;;;;21.31;73.14;99224.16;5053979;28;20041;-83
2021/07/16 08:41:15;;;;;;;;;;;;;;;;;;;;;
2021/07/16 08:43:46;;;;;;;7.22;5.75;;;;;;;21.04;75.15;99231.22;5052744;28;20044;-84
2021/07/16 08:46:14;;;;;;;12.98;6.07;;;;;;;20.89;75.16;99233.72;5053471;28;20064;-83
2021/07/16 08:48:42;;;;;;;14.07;5.85;;;;;;;20.73;75.77;99232.66;5041635;28;20041;-83
2021/07/16 08:51:47;;;;;;;9.27;6.00;;;;;;;20.44;76.41;99223.53;5034349;28;20049;-85
2021/07/16 08:54:16;;;;;;;8.80;5.60;;;;;;;20.76;76.11;99242.34;5052923;28;20051;-84
2021/07/16 08:56:46;;;;;;;8.60;5.25;;;;;;;20.76;76.03;99251.50;5053479;28;20140;-84
2021/07/16 08:59:23;;;;;;;7.28;4.80;;;;;;;20.79;75.76;99241.84;5052957;28;20063;-84
2021/07/16 09:02:00;;;;;;;5.95;4.70;;;;;;;20.72;74.19;99232.91;5053304;28;20045;-83
2021/07/16 09:04:27;;;;;;;5.60;4.45;;;;;;;20.90;74.91;99251.16;5052262;28;20044;-84
2021/07/16 09:06:56;;;;;;;6.57;4.80;;;;;;;20.82;75.53;99246.88;5034286;28;20064;-83
2021/07/16 09:09:31;;;;;;;5.18;4.45;;;;;;;20.83;74.40;99243.03;5040652;28;20051;-84
2021/07/16 09:12:02;;;;;;;6.93;4.20;;;;;;;21.24;73.40;99246.44;5038054;28;20053;-84
2021/07/16 09:14:33;;;;;;;5.80;4.35;;;;;;;22.00;68.46;99251.41;5032940;28;20068;-84
2021/07/16 09:17:04;;;;;;;5.22;4.18;;;;;;;22.86;66.04;99238.75;5033179;28;20046;-84
2021/07/16 09:19:35;;;;;;;4.35;3.65;;;;;;;23.26;65.60;99244.88;5033379;28;20536;-84
2021/07/16 09:22:34;;;;;;;4.43;3.83;;;;;;;22.98;66.20;99239.38;5052681;28;20053;-83
2021/07/16 09:25:03;;;;;;;4.27;3.33;;;;;;;22.14;66.62;99234.41;5034200;28;20076;-84
2021/07/16 09:27:33;;;;;;;6.88;3.80;;;;;;;22.35;66.81;99238.25;5051784;28;20043;-83
2021/07/16 09:30:14;;;;;;;4.03;3.55;;;;;;;21.81;67.02;99241.75;5052697;28;20139;-83
2021/07/16 09:32:45;;;;;;;3.55;3.22;;;;;;;21.55;69.47;99241.41;5052182;28;20114;-83
2021/07/16 09:35:18;;;;;;;4.60;3.50;;;;;;;21.49;71.94;99243.22;5052519;28;20099;-83
2021/07/16 09:37:52;;;;;;;4.70;3.42;;;;;;;21.19;73.76;99252.72;5051994;28;20041;-83
2021/07/16 09:40:28;;;;;;;7.15;2.92;;;;;;;21.09;72.68;99248.97;5052610;28;20103;-83
2021/07/16 09:43:08;;;;;;;4.82;3.47;;;;;;;20.82;73.76;99236.69;5044202;28;20056;-83
2021/07/16 09:45:35;;;;;;;;;;;;;;;20.95;76.12;99245.72;5053240;28;20102;-83
2021/07/16 09:48:22;;;;;;;4.68;3.25;;;;;;;20.95;71.45;99251.25;5051486;28;19924;-83
2021/07/16 09:50:50;;;;;;;3.00;2.60;;;;;;;20.81;71.86;99232.22;5032514;28;20049;-82
2021/07/16 09:53:22;;;;;;;4.95;3.30;;;;;;;20.94;71.82;99244.03;5032111;28;20524;-83
2021/07/16 09:55:52;;;;;;;3.70;3.20;;;;;;;21.31;74.05;99241.59;5048696;28;20143;-83
2021/07/16 09:58:26;;;;;;;5.47;3.58;;;;;;;21.55;72.70;99238.63;5032250;28;20053;-82
2021/07/16 10:00:54;;;;;;;7.40;3.17;;;;;;;21.50;72.46;99235.81;5045192;28;20045;-82
2021/07/16 10:03:23;;;;;;;5.10;3.13;;;;;;;21.76;71.37;99252.75;5051572;28;20052;-82
2021/07/16 10:05:51;;;;;;;4.75;3.17;;;;;;;21.72;71.06;99253.28;5044011;28;20049;-82
2021/07/16 10:08:19;;;;;;;5.82;3.40;;;;;;;21.54;71.37;99245.25;5032057;28;20053;-82
2021/07/16 10:10:48;;;;;;;4.25;3.17;;;;;;;21.49;72.06;99246.00;5043804;28;20484;-82
2021/07/16 10:13:16;;;;;;;4.47;3.10;;;;;;;21.71;71.17;99264.59;5052023;28;20558;-82
2021/07/16 10:15:44;;;;;;;2.80;2.60;;;;;;;22.17;70.25;99242.19;5051861;28;20099;-82
2021/07/16 10:18:12;;;;;;;2.60;2.40;;;;;;;22.79;65.38;99246.44;5052196;28;20147;-82
2021/07/16 10:20:40;;;;;;;5.22;2.63;;;;;;;22.76;65.08;99250.59;5047764;28;20049;-82
2021/07/16 10:23:09;;;;;;;2.85;2.55;;;;;;;22.32;66.39;99234.06;5051623;28;20132;-82
2021/07/16 10:25:36;;;;;;;2.80;2.45;;;;;;;22.24;67.00;99249.19;5051865;28;20041;-81
2021/07/16 10:28:03;;;;;;;4.07;2.60;;;;;;;22.20;68.33;99255.50;5051910;28;20455;-82
2021/07/16 10:30:37;;;;;;;5.53;2.33;;;;;;;22.21;66.89;99248.88;5052017;28;20045;-81
2021/07/16 10:33:04;;;;;;;3.35;2.40;;;;;;;22.11;66.46;99252.34;5051500;28;20080;-81
2021/07/16 10:35:37;;;;;;;4.30;2.45;;;;;;;22.16;66.61;99254.34;5051054;28;20045;-81
2021/07/16 10:38:26;;;;;;;4.18;2.28;;;;;;;21.82;68.74;99251.72;5044580;28;20045;-81
2021/07/16 10:40:54;;;;;;;2.45;2.25;;;;;;;22.14;68.54;99234.41;5032834;28;20053;-81
2021/07/16 10:43:40;;;;;;;3.70;2.42;;;;;;;22.11;66.13;99244.03;5055716;28;20045;-81
2021/07/16 10:46:29;;;;;;;4.63;2.90;;;;;;;21.88;67.61;99236.88;5056764;28;20167;-80
2021/07/16 10:48:56;;;;;;;3.58;2.90;;;;;;;21.93;66.80;99236.91;5055079;28;20049;-81
2021/07/16 10:51:25;;;;;;;3.15;2.83;;;;;;;22.01;67.10;99250.31;5055456;28;21883;-81
2021/07/16 10:53:53;;;;;;;4.80;2.47;;;;;;;21.92;67.79;99244.38;5048939;28;20493;-80
2021/07/16 10:56:36;;;;;;;2.63;2.42;;;;;;;21.91;68.13;99245.47;5055226;28;20344;-80
2021/07/16 10:59:02;;;;;;;3.25;2.95;;;;;;;21.84;68.04;99235.69;5054612;28;20439;-80
2021/07/16 11:01:44;;;;;;;3.05;2.42;;;;;;;21.88;69.44;99228.56;5043576;28;20107;-81
2021/07/16 11:04:30;;;;;;;3.00;2.50;;;;;;;22.02;69.47;99234.53;5036231;28;20504;-81
2021/07/16 11:06:59;;;;;;;2.97;2.33;;;;;;;22.05;70.09;99248.69;5036685;28;20041;-81
2021/07/16 11:09:46;;;;;;;4.13;3.72;;;;;;;21.71;70.97;99243.28;5054803;28;20065;-80
2021/07/16 11:12:28;;;;;;;3.88;2.70;;;;;;;21.59;72.09;99247.25;5036395;28;20059;-79
2021/07/16 11:14:56;;;;;;;5.70;2.92;;;;;;;21.65;72.74;99260.91;5048882;28;20049;-80
2021/07/16 11:17:27;;;;;;;4.32;2.38;;;;;;;21.45;75.84;99253.13;5048960;28;20076;-80
2021/07/16 11:20:31;;;;;;;13.82;2.80;;;;;;;21.60;76.28;99252.53;5054676;28;20041;-79
2021/07/16 11:23:04;;;;;;;2.97;2.67;;;;;;;21.54;77.35;99248.03;5054418;28;20518;-80
2021/07/16 11:25:34;;;;;;;3.47;2.67;;;;;;;21.49;74.85;99232.16;5054128;28;20060;-79
2021/07/16 11:28:08;;;;;;;3.75;2.60;;;;;;;21.79;76.18;99250.31;5054302;28;20052;-79
2021/07/16 11:30:36;;;;;;;4.32;2.58;;;;;;;21.87;77.67;99244.31;5054697;28;20319;-79
2021/07/16 11:33:06;;;;;;;4.25;2.88;;;;;;;22.09;73.28;99244.31;5053848;28;20139;-79